sensor_id;sensor_type;location;lat;lon;timestamp;P1;durP1;ratioP1;P2;durP2;ratioP2
76599;SDS011;65489;52.048;6.090;2023-07-28T00:00:53;0.40;;;0.32;;
76599;SDS011;65489;52.048;6.090;2023-07-28T00:03:19;0.50;;;0.40;;
76599;SDS011;65489;52.048;6.090;2023-07-28T00:05:44;0.40;;;0.30;;
76599;SDS011;65489;52.048;6.090;2023-07-28T00:08:10;0.40;;;0.35;;
76599;SDS011;65489;52.048;6.090;2023-07-28T00:10:39;0.47;;;0.30;;
76599;SDS011;65489;52.048;6.090;2023-07-28T00:13:06;0.95;;;0.30;;
76599;SDS011;65489;52.048;6.090;2023-07-28T00:15:31;0.50;;;0.40;;
76599;SDS011;65489;52.048;6.090;2023-07-28T00:17:57;0.60;;;0.40;;
76599;SDS011;65489;52.048;6.090;2023-07-28T00:20:24;0.63;;;0.38;;
76599;SDS011;65489;52.048;6.090;2023-07-28T00:22:50;1.70;;;0.40;;
76599;SDS011;65489;52.048;6.090;2023-07-28T00:25:15;0.43;;;0.40;;
76599;SDS011;65489;52.048;6.090;2023-07-28T00:27:41;0.40;;;0.38;;
76599;SDS011;65489;52.048;6.090;2023-07-28T00:30:06;0.88;;;0.30;;
76599;SDS011;65489;52.048;6.090;2023-07-28T00:32:33;0.98;;;0.40;;
76599;SDS011;65489;52.048;6.090;2023-07-28T00:34:58;0.30;;;0.30;;
76599;SDS011;65489;52.048;6.090;2023-07-28T00:37:24;0.40;;;0.30;;
76599;SDS011;65489;52.048;6.090;2023-07-28T00:39:49;0.50;;;0.30;;
76599;SDS011;65489;52.048;6.090;2023-07-28T00:42:14;0.40;;;0.40;;
76599;SDS011;65489;52.048;6.090;2023-07-28T00:44:40;0.85;;;0.50;;
76599;SDS011;65489;52.048;6.090;2023-07-28T00:47:06;0.40;;;0.40;;
76599;SDS011;65489;52.048;6.090;2023-07-28T00:49:31;0.70;;;0.40;;
76599;SDS011;65489;52.048;6.090;2023-07-28T00:51:56;0.90;;;0.50;;
76599;SDS011;65489;52.048;6.090;2023-07-28T00:54:23;1.02;;;0.40;;
76599;SDS011;65489;52.048;6.090;2023-07-28T00:56:48;0.75;;;0.30;;
76599;SDS011;65489;52.048;6.090;2023-07-28T00:59:15;0.47;;;0.30;;
76599;SDS011;65489;52.048;6.090;2023-07-28T01:01:40;0.73;;;0.40;;
76599;SDS011;65489;52.048;6.090;2023-07-28T01:04:06;0.40;;;0.35;;
76599;SDS011;65489;52.048;6.090;2023-07-28T01:09:12;0.40;;;0.30;;
76599;SDS011;65489;52.048;6.090;2023-07-28T01:11:52;0.50;;;0.40;;
76599;SDS011;65489;52.048;6.090;2023-07-28T01:14:21;0.50;;;0.40;;
76599;SDS011;65489;52.048;6.090;2023-07-28T01:16:47;0.40;;;0.40;;
76599;SDS011;65489;52.048;6.090;2023-07-28T01:19:12;0.60;;;0.40;;
76599;SDS011;65489;52.048;6.090;2023-07-28T01:21:46;0.43;;;0.38;;
76599;SDS011;65489;52.048;6.090;2023-07-28T01:24:15;0.57;;;0.32;;
76599;SDS011;65489;52.048;6.090;2023-07-28T01:26:45;0.60;;;0.30;;
76599;SDS011;65489;52.048;6.090;2023-07-28T01:29:11;1.23;;;0.40;;
76599;SDS011;65489;52.048;6.090;2023-07-28T01:31:38;0.50;;;0.30;;
76599;SDS011;65489;52.048;6.090;2023-07-28T01:34:04;0.40;;;0.40;;
76599;SDS011;65489;52.048;6.090;2023-07-28T01:36:30;0.47;;;0.40;;
76599;SDS011;65489;52.048;6.090;2023-07-28T01:38:55;0.50;;;0.30;;
76599;SDS011;65489;52.048;6.090;2023-07-28T01:41:21;0.40;;;0.40;;
76599;SDS011;65489;52.048;6.090;2023-07-28T01:43:46;0.40;;;0.32;;
76599;SDS011;65489;52.048;6.090;2023-07-28T01:46:12;0.50;;;0.40;;
76599;SDS011;65489;52.048;6.090;2023-07-28T01:48:37;0.70;;;0.38;;
76599;SDS011;65489;52.048;6.090;2023-07-28T01:51:03;0.40;;;0.40;;
76599;SDS011;65489;52.048;6.090;2023-07-28T01:53:28;0.60;;;0.50;;
76599;SDS011;65489;52.048;6.090;2023-07-28T01:55:54;0.50;;;0.30;;
76599;SDS011;65489;52.048;6.090;2023-07-28T01:58:19;0.75;;;0.40;;
76599;SDS011;65489;52.048;6.090;2023-07-28T02:00:45;1.33;;;0.50;;
76599;SDS011;65489;52.048;6.090;2023-07-28T02:03:11;0.50;;;0.40;;
76599;SDS011;65489;52.048;6.090;2023-07-28T02:05:37;1.00;;;0.50;;
76599;SDS011;65489;52.048;6.090;2023-07-28T02:08:02;0.30;;;0.30;;
76599;SDS011;65489;52.048;6.090;2023-07-28T02:10:28;1.67;;;0.40;;
76599;SDS011;65489;52.048;6.090;2023-07-28T02:12:54;0.60;;;0.40;;
76599;SDS011;65489;52.048;6.090;2023-07-28T02:15:20;1.13;;;0.57;;
76599;SDS011;65489;52.048;6.090;2023-07-28T02:17:45;0.50;;;0.40;;
76599;SDS011;65489;52.048;6.090;2023-07-28T02:20:11;1.23;;;0.47;;
76599;SDS011;65489;52.048;6.090;2023-07-28T02:22:38;0.70;;;0.40;;
76599;SDS011;65489;52.048;6.090;2023-07-28T02:25:05;1.77;;;0.40;;
76599;SDS011;65489;52.048;6.090;2023-07-28T02:27:31;0.60;;;0.60;;
76599;SDS011;65489;52.048;6.090;2023-07-28T02:29:56;0.40;;;0.40;;
76599;SDS011;65489;52.048;6.090;2023-07-28T02:32:21;1.85;;;0.40;;
76599;SDS011;65489;52.048;6.090;2023-07-28T02:34:47;0.40;;;0.40;;
76599;SDS011;65489;52.048;6.090;2023-07-28T02:37:14;0.38;;;0.30;;
76599;SDS011;65489;52.048;6.090;2023-07-28T02:39:40;0.50;;;0.40;;
76599;SDS011;65489;52.048;6.090;2023-07-28T02:42:07;0.80;;;0.40;;
76599;SDS011;65489;52.048;6.090;2023-07-28T02:44:32;0.85;;;0.55;;
76599;SDS011;65489;52.048;6.090;2023-07-28T02:46:58;0.60;;;0.50;;
76599;SDS011;65489;52.048;6.090;2023-07-28T02:49:23;0.75;;;0.50;;
76599;SDS011;65489;52.048;6.090;2023-07-28T02:51:49;0.55;;;0.50;;
76599;SDS011;65489;52.048;6.090;2023-07-28T02:54:14;0.60;;;0.50;;
76599;SDS011;65489;52.048;6.090;2023-07-28T02:56:40;0.57;;;0.45;;
76599;SDS011;65489;52.048;6.090;2023-07-28T02:59:09;0.40;;;0.32;;
76599;SDS011;65489;52.048;6.090;2023-07-28T03:01:35;1.05;;;0.60;;
76599;SDS011;65489;52.048;6.090;2023-07-28T03:04:01;0.60;;;0.50;;
76599;SDS011;65489;52.048;6.090;2023-07-28T03:06:30;0.88;;;0.60;;
76599;SDS011;65489;52.048;6.090;2023-07-28T03:08:57;0.80;;;0.57;;
76599;SDS011;65489;52.048;6.090;2023-07-28T03:11:46;1.30;;;0.52;;
76599;SDS011;65489;52.048;6.090;2023-07-28T03:14:11;1.17;;;0.70;;
76599;SDS011;65489;52.048;6.090;2023-07-28T03:16:38;0.85;;;0.63;;
76599;SDS011;65489;52.048;6.090;2023-07-28T03:19:04;0.93;;;0.50;;
76599;SDS011;65489;52.048;6.090;2023-07-28T03:21:30;1.25;;;0.70;;
76599;SDS011;65489;52.048;6.090;2023-07-28T03:23:56;1.13;;;0.63;;
76599;SDS011;65489;52.048;6.090;2023-07-28T03:26:21;1.00;;;0.70;;
76599;SDS011;65489;52.048;6.090;2023-07-28T03:28:47;0.82;;;0.68;;
76599;SDS011;65489;52.048;6.090;2023-07-28T03:31:12;0.88;;;0.70;;
76599;SDS011;65489;52.048;6.090;2023-07-28T03:33:38;1.65;;;0.57;;
76599;SDS011;65489;52.048;6.090;2023-07-28T03:36:03;1.88;;;0.70;;
76599;SDS011;65489;52.048;6.090;2023-07-28T03:38:31;0.55;;;0.50;;
76599;SDS011;65489;52.048;6.090;2023-07-28T03:40:57;0.95;;;0.60;;
76599;SDS011;65489;52.048;6.090;2023-07-28T03:43:22;0.80;;;0.63;;
76599;SDS011;65489;52.048;6.090;2023-07-28T03:45:48;0.80;;;0.63;;
76599;SDS011;65489;52.048;6.090;2023-07-28T03:48:13;1.50;;;0.60;;
76599;SDS011;65489;52.048;6.090;2023-07-28T03:50:39;0.90;;;0.70;;
76599;SDS011;65489;52.048;6.090;2023-07-28T03:53:04;1.08;;;0.60;;
76599;SDS011;65489;52.048;6.090;2023-07-28T03:55:30;0.82;;;0.63;;
76599;SDS011;65489;52.048;6.090;2023-07-28T03:57:55;0.77;;;0.70;;
76599;SDS011;65489;52.048;6.090;2023-07-28T04:00:21;0.93;;;0.50;;
76599;SDS011;65489;52.048;6.090;2023-07-28T04:02:46;0.75;;;0.63;;
76599;SDS011;65489;52.048;6.090;2023-07-28T04:05:12;1.08;;;0.75;;
76599;SDS011;65489;52.048;6.090;2023-07-28T04:07:38;1.33;;;0.75;;
76599;SDS011;65489;52.048;6.090;2023-07-28T04:10:03;1.27;;;0.70;;
76599;SDS011;65489;52.048;6.090;2023-07-28T04:12:29;1.45;;;0.75;;
76599;SDS011;65489;52.048;6.090;2023-07-28T04:14:55;1.13;;;0.60;;
76599;SDS011;65489;52.048;6.090;2023-07-28T04:17:20;1.83;;;0.82;;
76599;SDS011;65489;52.048;6.090;2023-07-28T04:19:46;1.98;;;0.80;;
76599;SDS011;65489;52.048;6.090;2023-07-28T04:22:11;1.15;;;0.82;;
76599;SDS011;65489;52.048;6.090;2023-07-28T04:24:37;0.95;;;0.70;;
76599;SDS011;65489;52.048;6.090;2023-07-28T04:27:03;1.25;;;0.85;;
76599;SDS011;65489;52.048;6.090;2023-07-28T04:29:28;1.17;;;0.85;;
76599;SDS011;65489;52.048;6.090;2023-07-28T04:31:54;1.27;;;0.60;;
76599;SDS011;65489;52.048;6.090;2023-07-28T04:34:27;1.08;;;0.88;;
76599;SDS011;65489;52.048;6.090;2023-07-28T04:37:09;0.73;;;0.70;;
76599;SDS011;65489;52.048;6.090;2023-07-28T04:40:00;1.20;;;0.93;;
76599;SDS011;65489;52.048;6.090;2023-07-28T04:42:32;1.38;;;0.93;;
76599;SDS011;65489;52.048;6.090;2023-07-28T04:44:58;1.20;;;1.08;;
76599;SDS011;65489;52.048;6.090;2023-07-28T04:47:23;1.00;;;0.90;;
76599;SDS011;65489;52.048;6.090;2023-07-28T04:49:49;1.10;;;1.00;;
76599;SDS011;65489;52.048;6.090;2023-07-28T04:52:40;1.63;;;0.90;;
76599;SDS011;65489;52.048;6.090;2023-07-28T04:55:38;1.40;;;0.80;;
76599;SDS011;65489;52.048;6.090;2023-07-28T04:58:03;2.22;;;0.93;;
76599;SDS011;65489;52.048;6.090;2023-07-28T05:00:41;1.23;;;1.05;;
76599;SDS011;65489;52.048;6.090;2023-07-28T05:03:07;1.05;;;0.80;;
76599;SDS011;65489;52.048;6.090;2023-07-28T05:05:37;1.30;;;0.85;;
76599;SDS011;65489;52.048;6.090;2023-07-28T05:08:09;1.48;;;1.02;;
76599;SDS011;65489;52.048;6.090;2023-07-28T05:10:34;1.77;;;0.90;;
76599;SDS011;65489;52.048;6.090;2023-07-28T05:13:00;1.13;;;1.02;;
76599;SDS011;65489;52.048;6.090;2023-07-28T05:15:26;1.55;;;1.00;;
76599;SDS011;65489;52.048;6.090;2023-07-28T05:17:51;1.48;;;1.00;;
76599;SDS011;65489;52.048;6.090;2023-07-28T05:20:32;0.88;;;0.82;;
76599;SDS011;65489;52.048;6.090;2023-07-28T05:23:10;1.60;;;0.90;;
76599;SDS011;65489;52.048;6.090;2023-07-28T05:25:35;1.70;;;1.02;;
76599;SDS011;65489;52.048;6.090;2023-07-28T05:28:01;1.50;;;1.10;;
76599;SDS011;65489;52.048;6.090;2023-07-28T05:30:29;1.20;;;1.00;;
76599;SDS011;65489;52.048;6.090;2023-07-28T05:32:54;1.75;;;1.08;;
76599;SDS011;65489;52.048;6.090;2023-07-28T05:35:43;1.60;;;1.08;;
76599;SDS011;65489;52.048;6.090;2023-07-28T05:38:08;1.58;;;1.20;;
76599;SDS011;65489;52.048;6.090;2023-07-28T05:40:34;2.25;;;1.35;;
76599;SDS011;65489;52.048;6.090;2023-07-28T05:42:59;1.40;;;1.20;;
76599;SDS011;65489;52.048;6.090;2023-07-28T05:45:25;1.58;;;1.17;;
76599;SDS011;65489;52.048;6.090;2023-07-28T05:47:50;1.88;;;1.05;;
76599;SDS011;65489;52.048;6.090;2023-07-28T05:50:16;1.35;;;1.10;;
76599;SDS011;65489;52.048;6.090;2023-07-28T05:52:41;1.27;;;1.08;;
76599;SDS011;65489;52.048;6.090;2023-07-28T05:55:07;2.60;;;1.00;;
76599;SDS011;65489;52.048;6.090;2023-07-28T05:57:33;1.17;;;1.00;;
76599;SDS011;65489;52.048;6.090;2023-07-28T06:00:02;1.13;;;1.00;;
76599;SDS011;65489;52.048;6.090;2023-07-28T06:02:39;2.08;;;0.98;;
76599;SDS011;65489;52.048;6.090;2023-07-28T06:05:05;1.50;;;1.13;;
76599;SDS011;65489;52.048;6.090;2023-07-28T06:07:30;1.35;;;1.20;;
76599;SDS011;65489;52.048;6.090;2023-07-28T06:09:56;1.42;;;1.20;;
76599;SDS011;65489;52.048;6.090;2023-07-28T06:12:21;1.40;;;1.10;;
76599;SDS011;65489;52.048;6.090;2023-07-28T06:14:47;2.15;;;1.20;;
76599;SDS011;65489;52.048;6.090;2023-07-28T06:17:13;2.00;;;1.40;;
76599;SDS011;65489;52.048;6.090;2023-07-28T06:19:41;1.58;;;1.20;;
76599;SDS011;65489;52.048;6.090;2023-07-28T06:22:07;1.52;;;1.30;;
76599;SDS011;65489;52.048;6.090;2023-07-28T06:24:37;2.08;;;1.30;;
76599;SDS011;65489;52.048;6.090;2023-07-28T06:27:03;2.97;;;1.17;;
76599;SDS011;65489;52.048;6.090;2023-07-28T06:29:34;1.38;;;1.27;;
76599;SDS011;65489;52.048;6.090;2023-07-28T06:32:00;1.40;;;1.25;;
76599;SDS011;65489;52.048;6.090;2023-07-28T06:34:26;2.67;;;1.20;;
76599;SDS011;65489;52.048;6.090;2023-07-28T06:36:51;1.50;;;1.30;;
76599;SDS011;65489;52.048;6.090;2023-07-28T06:39:17;1.90;;;1.27;;
76599;SDS011;65489;52.048;6.090;2023-07-28T06:41:43;1.52;;;1.40;;
76599;SDS011;65489;52.048;6.090;2023-07-28T06:44:11;2.47;;;1.47;;
76599;SDS011;65489;52.048;6.090;2023-07-28T06:46:36;1.50;;;1.40;;
76599;SDS011;65489;52.048;6.090;2023-07-28T06:49:02;1.20;;;1.05;;
76599;SDS011;65489;52.048;6.090;2023-07-28T06:51:28;1.60;;;1.20;;
76599;SDS011;65489;52.048;6.090;2023-07-28T06:53:54;2.10;;;1.45;;
76599;SDS011;65489;52.048;6.090;2023-07-28T06:56:19;1.75;;;1.38;;
76599;SDS011;65489;52.048;6.090;2023-07-28T06:58:45;1.33;;;1.20;;
76599;SDS011;65489;52.048;6.090;2023-07-28T07:01:10;1.83;;;1.40;;
76599;SDS011;65489;52.048;6.090;2023-07-28T07:03:36;2.15;;;1.60;;
76599;SDS011;65489;52.048;6.090;2023-07-28T07:06:02;1.75;;;1.38;;
76599;SDS011;65489;52.048;6.090;2023-07-28T07:08:28;1.50;;;1.35;;
76599;SDS011;65489;52.048;6.090;2023-07-28T07:10:53;1.40;;;1.23;;
76599;SDS011;65489;52.048;6.090;2023-07-28T07:13:19;1.83;;;1.42;;
76599;SDS011;65489;52.048;6.090;2023-07-28T07:15:45;2.00;;;1.42;;
76599;SDS011;65489;52.048;6.090;2023-07-28T07:18:11;2.08;;;1.60;;
76599;SDS011;65489;52.048;6.090;2023-07-28T07:20:38;1.70;;;1.40;;
76599;SDS011;65489;52.048;6.090;2023-07-28T07:23:04;3.22;;;1.38;;
76599;SDS011;65489;52.048;6.090;2023-07-28T07:25:30;1.85;;;1.45;;
76599;SDS011;65489;52.048;6.090;2023-07-28T07:27:56;1.88;;;1.35;;
76599;SDS011;65489;52.048;6.090;2023-07-28T07:30:21;1.80;;;1.50;;
76599;SDS011;65489;52.048;6.090;2023-07-28T07:32:47;1.75;;;1.48;;
76599;SDS011;65489;52.048;6.090;2023-07-28T07:35:13;1.40;;;1.30;;
76599;SDS011;65489;52.048;6.090;2023-07-28T07:37:38;1.77;;;1.40;;
76599;SDS011;65489;52.048;6.090;2023-07-28T07:40:05;1.38;;;1.20;;
76599;SDS011;65489;52.048;6.090;2023-07-28T07:42:48;1.70;;;1.40;;
76599;SDS011;65489;52.048;6.090;2023-07-28T07:45:14;2.30;;;1.30;;
76599;SDS011;65489;52.048;6.090;2023-07-28T07:47:40;1.75;;;1.40;;
76599;SDS011;65489;52.048;6.090;2023-07-28T07:50:06;1.85;;;1.40;;
76599;SDS011;65489;52.048;6.090;2023-07-28T07:52:34;1.52;;;1.33;;
76599;SDS011;65489;52.048;6.090;2023-07-28T07:55:00;1.83;;;1.50;;
76599;SDS011;65489;52.048;6.090;2023-07-28T07:57:26;2.65;;;1.52;;
76599;SDS011;65489;52.048;6.090;2023-07-28T07:59:51;2.90;;;1.65;;
76599;SDS011;65489;52.048;6.090;2023-07-28T08:02:17;2.20;;;1.67;;
76599;SDS011;65489;52.048;6.090;2023-07-28T08:04:42;1.67;;;1.58;;
76599;SDS011;65489;52.048;6.090;2023-07-28T08:07:08;1.52;;;1.42;;
76599;SDS011;65489;52.048;6.090;2023-07-28T08:09:33;3.70;;;1.67;;
76599;SDS011;65489;52.048;6.090;2023-07-28T08:11:59;3.10;;;2.00;;
76599;SDS011;65489;52.048;6.090;2023-07-28T08:14:25;2.63;;;1.80;;
76599;SDS011;65489;52.048;6.090;2023-07-28T08:16:50;3.50;;;2.03;;
76599;SDS011;65489;52.048;6.090;2023-07-28T08:19:16;6.05;;;2.08;;
76599;SDS011;65489;52.048;6.090;2023-07-28T08:21:41;5.22;;;1.95;;
76599;SDS011;65489;52.048;6.090;2023-07-28T08:24:07;3.80;;;2.08;;
76599;SDS011;65489;52.048;6.090;2023-07-28T08:26:33;5.43;;;2.45;;
76599;SDS011;65489;52.048;6.090;2023-07-28T08:28:59;5.55;;;2.17;;
76599;SDS011;65489;52.048;6.090;2023-07-28T08:31:24;4.70;;;2.35;;
76599;SDS011;65489;52.048;6.090;2023-07-28T08:33:50;6.82;;;2.63;;
76599;SDS011;65489;52.048;6.090;2023-07-28T08:36:15;6.70;;;2.45;;
76599;SDS011;65489;52.048;6.090;2023-07-28T08:38:41;6.25;;;2.95;;
76599;SDS011;65489;52.048;6.090;2023-07-28T08:41:06;10.57;;;3.03;;
76599;SDS011;65489;52.048;6.090;2023-07-28T08:43:32;6.78;;;3.28;;
76599;SDS011;65489;52.048;6.090;2023-07-28T08:45:57;7.72;;;3.22;;
76599;SDS011;65489;52.048;6.090;2023-07-28T08:48:26;11.88;;;4.38;;
76599;SDS011;65489;52.048;6.090;2023-07-28T08:50:52;8.02;;;3.45;;
76599;SDS011;65489;52.048;6.090;2023-07-28T08:53:18;8.93;;;3.58;;
76599;SDS011;65489;52.048;6.090;2023-07-28T08:55:44;10.15;;;3.72;;
76599;SDS011;65489;52.048;6.090;2023-07-28T08:58:29;8.10;;;3.55;;
76599;SDS011;65489;52.048;6.090;2023-07-28T09:00:55;10.98;;;3.90;;
76599;SDS011;65489;52.048;6.090;2023-07-28T09:03:20;11.00;;;3.85;;
76599;SDS011;65489;52.048;6.090;2023-07-28T09:05:46;8.85;;;3.72;;
76599;SDS011;65489;52.048;6.090;2023-07-28T09:08:12;9.68;;;3.67;;
76599;SDS011;65489;52.048;6.090;2023-07-28T09:10:42;10.02;;;3.63;;
76599;SDS011;65489;52.048;6.090;2023-07-28T09:13:15;9.68;;;3.90;;
76599;SDS011;65489;52.048;6.090;2023-07-28T09:15:41;8.48;;;3.88;;
76599;SDS011;65489;52.048;6.090;2023-07-28T09:18:10;9.23;;;3.40;;
76599;SDS011;65489;52.048;6.090;2023-07-28T09:20:42;7.72;;;3.60;;
76599;SDS011;65489;52.048;6.090;2023-07-28T09:23:09;7.82;;;3.50;;
76599;SDS011;65489;52.048;6.090;2023-07-28T09:25:35;8.68;;;3.55;;
76599;SDS011;65489;52.048;6.090;2023-07-28T09:28:02;6.47;;;3.33;;
76599;SDS011;65489;52.048;6.090;2023-07-28T09:30:42;8.27;;;3.58;;
76599;SDS011;65489;52.048;6.090;2023-07-28T09:33:12;7.35;;;3.35;;
76599;SDS011;65489;52.048;6.090;2023-07-28T09:35:46;8.90;;;3.80;;
76599;SDS011;65489;52.048;6.090;2023-07-28T09:38:13;9.68;;;3.22;;
76599;SDS011;65489;52.048;6.090;2023-07-28T09:40:40;6.03;;;3.20;;
76599;SDS011;65489;52.048;6.090;2023-07-28T09:43:05;7.57;;;3.40;;
76599;SDS011;65489;52.048;6.090;2023-07-28T09:45:31;6.57;;;2.90;;
76599;SDS011;65489;52.048;6.090;2023-07-28T09:47:57;6.70;;;3.28;;
76599;SDS011;65489;52.048;6.090;2023-07-28T09:50:24;6.45;;;3.00;;
76599;SDS011;65489;52.048;6.090;2023-07-28T09:52:53;5.95;;;2.83;;
76599;SDS011;65489;52.048;6.090;2023-07-28T09:55:19;6.45;;;3.33;;
76599;SDS011;65489;52.048;6.090;2023-07-28T09:57:52;5.50;;;3.13;;
76599;SDS011;65489;52.048;6.090;2023-07-28T10:00:18;4.70;;;2.63;;
76599;SDS011;65489;52.048;6.090;2023-07-28T10:02:44;5.43;;;3.30;;
76599;SDS011;65489;52.048;6.090;2023-07-28T10:05:10;5.82;;;2.88;;
76599;SDS011;65489;52.048;6.090;2023-07-28T10:07:38;6.35;;;3.08;;
76599;SDS011;65489;52.048;6.090;2023-07-28T10:10:05;4.50;;;2.72;;
76599;SDS011;65489;52.048;6.090;2023-07-28T10:12:51;5.30;;;2.90;;
76599;SDS011;65489;52.048;6.090;2023-07-28T10:15:20;4.90;;;3.05;;
76599;SDS011;65489;52.048;6.090;2023-07-28T10:17:50;5.57;;;2.70;;
76599;SDS011;65489;52.048;6.090;2023-07-28T10:22:52;5.80;;;2.60;;
76599;SDS011;65489;52.048;6.090;2023-07-28T10:25:22;5.47;;;2.97;;
76599;SDS011;65489;52.048;6.090;2023-07-28T10:27:50;3.72;;;2.47;;
76599;SDS011;65489;52.048;6.090;2023-07-28T10:30:16;5.80;;;2.90;;
76599;SDS011;65489;52.048;6.090;2023-07-28T10:32:42;5.70;;;2.35;;
76599;SDS011;65489;52.048;6.090;2023-07-28T10:35:21;4.78;;;2.60;;
76599;SDS011;65489;52.048;6.090;2023-07-28T10:37:48;4.63;;;2.60;;
76599;SDS011;65489;52.048;6.090;2023-07-28T10:42:53;4.03;;;2.35;;
76599;SDS011;65489;52.048;6.090;2023-07-28T10:45:19;4.88;;;2.92;;
76599;SDS011;65489;52.048;6.090;2023-07-28T10:47:45;5.05;;;2.60;;
76599;SDS011;65489;52.048;6.090;2023-07-28T10:50:13;4.35;;;2.58;;
76599;SDS011;65489;52.048;6.090;2023-07-28T10:52:42;4.05;;;2.60;;
76599;SDS011;65489;52.048;6.090;2023-07-28T10:55:21;4.15;;;2.70;;
76599;SDS011;65489;52.048;6.090;2023-07-28T10:57:51;3.97;;;2.45;;
76599;SDS011;65489;52.048;6.090;2023-07-28T11:00:19;3.33;;;2.50;;
76599;SDS011;65489;52.048;6.090;2023-07-28T11:02:47;4.73;;;2.70;;
76599;SDS011;65489;52.048;6.090;2023-07-28T11:05:19;4.35;;;2.25;;
76599;SDS011;65489;52.048;6.090;2023-07-28T11:07:47;3.58;;;2.33;;
76599;SDS011;65489;52.048;6.090;2023-07-28T11:10:13;4.38;;;2.35;;
76599;SDS011;65489;52.048;6.090;2023-07-28T11:12:40;3.60;;;2.38;;
76599;SDS011;65489;52.048;6.090;2023-07-28T11:15:10;2.83;;;2.40;;
76599;SDS011;65489;52.048;6.090;2023-07-28T11:17:37;3.15;;;2.22;;
76599;SDS011;65489;52.048;6.090;2023-07-28T11:20:16;4.32;;;2.50;;
76599;SDS011;65489;52.048;6.090;2023-07-28T11:22:43;5.28;;;2.70;;
76599;SDS011;65489;52.048;6.090;2023-07-28T11:25:09;3.22;;;2.53;;
76599;SDS011;65489;52.048;6.090;2023-07-28T11:27:35;3.53;;;2.28;;
76599;SDS011;65489;52.048;6.090;2023-07-28T11:30:02;2.58;;;2.13;;
76599;SDS011;65489;52.048;6.090;2023-07-28T11:32:34;2.88;;;2.03;;
76599;SDS011;65489;52.048;6.090;2023-07-28T11:35:03;3.67;;;2.50;;
76599;SDS011;65489;52.048;6.090;2023-07-28T11:37:33;3.13;;;2.38;;
76599;SDS011;65489;52.048;6.090;2023-07-28T11:39:59;2.72;;;2.17;;
76599;SDS011;65489;52.048;6.090;2023-07-28T11:42:25;3.22;;;2.20;;
76599;SDS011;65489;52.048;6.090;2023-07-28T11:44:52;3.33;;;2.38;;
76599;SDS011;65489;52.048;6.090;2023-07-28T11:47:17;4.15;;;2.22;;
76599;SDS011;65489;52.048;6.090;2023-07-28T11:49:49;4.20;;;2.10;;
76599;SDS011;65489;52.048;6.090;2023-07-28T11:52:16;3.63;;;2.42;;
76599;SDS011;65489;52.048;6.090;2023-07-28T11:54:41;4.35;;;2.50;;
76599;SDS011;65489;52.048;6.090;2023-07-28T11:57:07;2.45;;;2.10;;
76599;SDS011;65489;52.048;6.090;2023-07-28T11:59:34;3.13;;;2.30;;
76599;SDS011;65489;52.048;6.090;2023-07-28T12:02:01;3.80;;;2.20;;
76599;SDS011;65489;52.048;6.090;2023-07-28T12:04:28;3.15;;;2.13;;
76599;SDS011;65489;52.048;6.090;2023-07-28T12:07:12;3.05;;;2.38;;
76599;SDS011;65489;52.048;6.090;2023-07-28T12:12:11;3.17;;;2.47;;
76599;SDS011;65489;52.048;6.090;2023-07-28T12:14:38;2.40;;;1.98;;
76599;SDS011;65489;52.048;6.090;2023-07-28T12:17:03;2.70;;;2.15;;
76599;SDS011;65489;52.048;6.090;2023-07-28T12:19:40;2.90;;;1.95;;
76599;SDS011;65489;52.048;6.090;2023-07-28T12:22:07;2.92;;;2.22;;
76599;SDS011;65489;52.048;6.090;2023-07-28T12:24:33;2.58;;;2.03;;
76599;SDS011;65489;52.048;6.090;2023-07-28T12:26:58;3.42;;;2.13;;
76599;SDS011;65489;52.048;6.090;2023-07-28T12:29:24;2.53;;;2.10;;
76599;SDS011;65489;52.048;6.090;2023-07-28T12:31:49;3.08;;;2.22;;
76599;SDS011;65489;52.048;6.090;2023-07-28T12:34:14;2.30;;;2.10;;
76599;SDS011;65489;52.048;6.090;2023-07-28T12:36:40;3.42;;;2.17;;
76599;SDS011;65489;52.048;6.090;2023-07-28T12:39:06;2.80;;;2.20;;
76599;SDS011;65489;52.048;6.090;2023-07-28T12:41:31;2.83;;;2.17;;
76599;SDS011;65489;52.048;6.090;2023-07-28T12:43:57;3.25;;;2.15;;
76599;SDS011;65489;52.048;6.090;2023-07-28T12:46:22;4.10;;;2.35;;
76599;SDS011;65489;52.048;6.090;2023-07-28T12:48:48;2.50;;;2.10;;
76599;SDS011;65489;52.048;6.090;2023-07-28T12:51:13;2.50;;;2.13;;
76599;SDS011;65489;52.048;6.090;2023-07-28T12:53:39;2.15;;;1.95;;
76599;SDS011;65489;52.048;6.090;2023-07-28T12:56:04;3.47;;;2.30;;
76599;SDS011;65489;52.048;6.090;2023-07-28T12:58:30;2.85;;;2.55;;
76599;SDS011;65489;52.048;6.090;2023-07-28T13:00:56;2.72;;;2.40;;
76599;SDS011;65489;52.048;6.090;2023-07-28T13:03:23;3.00;;;2.30;;
76599;SDS011;65489;52.048;6.090;2023-07-28T13:05:48;3.25;;;2.70;;
76599;SDS011;65489;52.048;6.090;2023-07-28T13:08:14;2.60;;;2.40;;
76599;SDS011;65489;52.048;6.090;2023-07-28T13:10:39;2.70;;;2.35;;
76599;SDS011;65489;52.048;6.090;2023-07-28T13:13:05;3.05;;;2.58;;
76599;SDS011;65489;52.048;6.090;2023-07-28T13:15:30;2.50;;;2.30;;
76599;SDS011;65489;52.048;6.090;2023-07-28T13:17:55;2.63;;;2.38;;
76599;SDS011;65489;52.048;6.090;2023-07-28T13:20:21;3.10;;;2.50;;
76599;SDS011;65489;52.048;6.090;2023-07-28T13:22:46;2.63;;;2.10;;
76599;SDS011;65489;52.048;6.090;2023-07-28T13:25:12;2.60;;;2.40;;
76599;SDS011;65489;52.048;6.090;2023-07-28T13:27:38;2.88;;;2.58;;
76599;SDS011;65489;52.048;6.090;2023-07-28T13:30:03;2.88;;;2.50;;
76599;SDS011;65489;52.048;6.090;2023-07-28T13:32:30;2.88;;;2.20;;
76599;SDS011;65489;52.048;6.090;2023-07-28T13:34:55;2.33;;;2.13;;
76599;SDS011;65489;52.048;6.090;2023-07-28T13:37:21;2.83;;;2.45;;
76599;SDS011;65489;52.048;6.090;2023-07-28T13:39:47;3.03;;;2.60;;
76599;SDS011;65489;52.048;6.090;2023-07-28T13:42:12;2.60;;;2.35;;
76599;SDS011;65489;52.048;6.090;2023-07-28T13:44:40;2.17;;;1.97;;
76599;SDS011;65489;52.048;6.090;2023-07-28T13:47:06;2.53;;;2.20;;
76599;SDS011;65489;52.048;6.090;2023-07-28T13:49:32;2.35;;;2.15;;
76599;SDS011;65489;52.048;6.090;2023-07-28T13:52:01;2.83;;;2.47;;
76599;SDS011;65489;52.048;6.090;2023-07-28T13:54:29;2.33;;;2.13;;
76599;SDS011;65489;52.048;6.090;2023-07-28T13:56:55;2.40;;;2.08;;
76599;SDS011;65489;52.048;6.090;2023-07-28T13:59:20;2.30;;;2.10;;
76599;SDS011;65489;52.048;6.090;2023-07-28T14:01:46;3.90;;;2.70;;
76599;SDS011;65489;52.048;6.090;2023-07-28T14:04:13;2.67;;;2.17;;
76599;SDS011;65489;52.048;6.090;2023-07-28T14:06:39;2.88;;;2.20;;
76599;SDS011;65489;52.048;6.090;2023-07-28T14:09:04;3.10;;;2.00;;
76599;SDS011;65489;52.048;6.090;2023-07-28T14:11:30;2.40;;;2.20;;
76599;SDS011;65489;52.048;6.090;2023-07-28T14:13:56;2.70;;;2.17;;
76599;SDS011;65489;52.048;6.090;2023-07-28T14:16:22;2.40;;;2.05;;
76599;SDS011;65489;52.048;6.090;2023-07-28T14:18:47;2.55;;;2.35;;
76599;SDS011;65489;52.048;6.090;2023-07-28T14:21:14;2.30;;;2.10;;
76599;SDS011;65489;52.048;6.090;2023-07-28T14:23:39;2.42;;;2.10;;
76599;SDS011;65489;52.048;6.090;2023-07-28T14:26:05;2.53;;;2.03;;
76599;SDS011;65489;52.048;6.090;2023-07-28T14:28:30;3.17;;;2.22;;
76599;SDS011;65489;52.048;6.090;2023-07-28T14:30:56;2.63;;;2.20;;
76599;SDS011;65489;52.048;6.090;2023-07-28T14:33:21;2.30;;;2.10;;
76599;SDS011;65489;52.048;6.090;2023-07-28T14:35:48;2.42;;;2.22;;
76599;SDS011;65489;52.048;6.090;2023-07-28T14:38:14;2.08;;;1.88;;
76599;SDS011;65489;52.048;6.090;2023-07-28T14:40:39;2.40;;;2.13;;
76599;SDS011;65489;52.048;6.090;2023-07-28T14:43:05;2.25;;;2.05;;
76599;SDS011;65489;52.048;6.090;2023-07-28T14:45:31;2.10;;;1.88;;
76599;SDS011;65489;52.048;6.090;2023-07-28T14:47:56;2.05;;;1.92;;
76599;SDS011;65489;52.048;6.090;2023-07-28T14:50:22;2.10;;;1.90;;
76599;SDS011;65489;52.048;6.090;2023-07-28T14:52:48;2.10;;;1.90;;
76599;SDS011;65489;52.048;6.090;2023-07-28T14:55:14;2.17;;;1.80;;
76599;SDS011;65489;52.048;6.090;2023-07-28T14:57:39;2.15;;;1.95;;